Time;durP1;ratioP1;P1;durP2;ratioP2;P2;SDS_P1;SDS_P2;PMS_P1;PMS_P2;Temp;Humidity;BMP_temperature;BMP_pressure;BME280_temperature;BME280_humidity;BME280_pressure;Samples;Min_cycle;Max_cycle;Signal;HPM_P1;HPM_P2
2023/11/02 00:02:03;;;;;;;;;;;;;;;;;;2206657;59;2514;-25
2023/11/02 00:04:33;;;;;;;;;;;;;;;;;;2204938;66;3366;-25
2023/11/02 00:07:03;;;;;;;;;;;;;;;;;;2207062;59;2626;-25
2023/11/02 00:09:35;;;;;;;;;;;;;;;;;;2205574;59;2259;-25
2023/11/02 00:12:07;;;;;;;;;;;;;;;;;;2206266;59;1600;-25
2023/11/02 00:14:42;;;;;;;;;;;;;;;;;;2205102;66;1493;-25
2023/11/02 00:17:36;;;;;;;;;;;;;;;;;;2206721;59;2279;-25
2023/11/02 00:20:07;;;;;;;;;;;;;;;;;;2206229;66;1960;-25
2023/11/02 00:22:42;;;;;;;;;;;;;;;;;;2205531;59;1868;-25
2023/11/02 00:25:30;;;;;;;;;;;;;;;;;;2206247;66;1857;-25
2023/11/02 00:28:00;;;;;;;;;;;;;;;;;;2207054;59;2080;-25
2023/11/02 00:30:30;;;;;;;;;;;;;;;;;;2205633;59;2414;-25
2023/11/02 00:33:00;;;;;;;;;;;;;;;;;;2206258;59;1456;-25
2023/11/02 00:35:31;;;;;;;;;;;;;;;;;;2205675;66;2384;-25
2023/11/02 00:38:02;;;;;;;;;;;;;;;;;;2205540;59;2321;-25
2023/11/02 00:40:32;;;;;;;;;;;;;;;;;;2206546;59;1941;-25
2023/11/02 00:43:05;;;;;;;;;;;;;;;;;;2206690;66;1253;-25
2023/11/02 00:45:37;;;;;;;;;;;;;;;;;;2206235;59;1990;-25
2023/11/02 00:48:27;;;;;;;;;;;;;;;;;;2206640;66;2566;-25
2023/11/02 00:51:00;;;;;;;;;;;;;;;;;;2208782;58;1961;-25
2023/11/02 00:53:30;;;;;;;;;;;;;;;;;;2205350;59;1300;-25
2023/11/02 00:56:05;;;;;;;;;;;;;;;;;;2206479;66;1145;-25
2023/11/02 00:58:40;;;;;;;;;;;;;;;;;;2204944;66;2433;-25
2023/11/02 01:01:11;;;;;;;;;;;;;;;;;;2207239;66;1154;-25
2023/11/02 01:03:47;;;;;;;;;;;;;;;;;;2204817;59;2380;-25
2023/11/02 01:06:19;;;;;;;;;;;;;;;;;;2206180;66;2683;-25
2023/11/02 01:08:52;;;;;;;;;;;;;;;;;;2206257;59;2343;-25
2023/11/02 01:11:27;;;;;;;;;;;;;;;;;;2207140;66;2062;-25
2023/11/02 01:13:57;;;;;;;;;;;;;;;;;;2206534;59;1414;-25
2023/11/02 01:16:28;;;;;;;;;;;;;;;;;;2204550;66;2566;-25
2023/11/02 01:18:58;;;;;;;;;;;;;;;;;;2207102;66;1944;-25
2023/11/02 01:21:29;;;;;;;;;;;;;;;;;;2205269;66;1762;-25
2023/11/02 01:24:07;;;;;;;;;;;;;;;;;;2206768;66;1240;-25
2023/11/02 01:26:49;;;;;;;;;;;;;;;;;;2205431;66;2481;-25
2023/11/02 01:29:19;;;;;;;;;;;;;;;;;;2205672;59;2215;-25
2023/11/02 01:31:49;;;;;;;;;;;;;;;;;;2206108;66;1767;-25
2023/11/02 01:34:20;;;;;;;;;;;;;;;;;;2202157;66;2448;-25
2023/11/02 01:36:51;;;;;;;;;;;;;;;;;;2206309;66;2584;-25
2023/11/02 01:39:21;;;;;;;;;;;;;;;;;;2206301;59;1991;-25
2023/11/02 01:42:08;;;;;;;;;;;;;;;;;;2206513;59;1687;-25
2023/11/02 01:44:46;;;;;;;;;;;;;;;;;;2205162;59;1923;-25
2023/11/02 01:47:35;;;;;;;;;;;;;;;;;;2205804;66;1952;-25
2023/11/02 01:50:06;;;;;;;;;;;;;;;;;;2209112;58;1387;-25
2023/11/02 01:52:46;;;;;;;;;;;;;;;;;;2205995;59;1792;-25
2023/11/02 01:55:25;;;;;;;;;;;;;;;;;;2205793;66;1346;-25
2023/11/02 01:58:01;;;;;;;;;;;;;;;;;;2205827;66;1707;-25
2023/11/02 02:00:46;;;;;;;;;;;;;;;;;;2205167;66;1955;-25
2023/11/02 02:03:26;;;;;;;;;;;;;;;;;;2204951;59;2375;-25
2023/11/02 02:06:13;;;;;;;;;;;;;;;;;;2205568;60;1736;-25
2023/11/02 02:08:44;;;;;;;;;;;;;;;;;;2205002;66;1902;-25
2023/11/02 02:11:20;;;;;;;;;;;;;;;;;;2206826;66;1517;-25
2023/11/02 02:14:05;;;;;;;;;;;;;;;;;;2206266;66;1278;-25
2023/11/02 02:16:35;;;;;;;;;;;;;;;;;;2204985;59;2501;-25
2023/11/02 02:19:29;;;;;;;;;;;;;;;;;;2206386;66;1952;-25
2023/11/02 02:22:03;;;;;;;;;;;;;;;;;;2205786;66;2017;-25
2023/11/02 02:24:43;;;;;;;;;;;;;;;;;;2205865;59;2229;-25
2023/11/02 02:27:26;;;;;;;;;;;;;;;;;;2206072;66;2455;-25
2023/11/02 02:30:02;;;;;;;;;;;;;;;;;;2204478;59;2721;-25
2023/11/02 02:32:41;;;;;;;;;;;;;;;;;;2203112;59;2398;-25
2023/11/02 02:35:12;;;;;;;;;;;;;;;;;;2209808;66;1881;-25
2023/11/02 02:38:06;;;;;;;;;;;;;;;;;;2209880;66;2936;-25
2023/11/02 02:40:39;;;;;;;;;;;;;;;;;;2209094;59;2205;-25
2023/11/02 02:43:11;;;;;;;;;;;;;;;;;;2209072;59;2121;-25
2023/11/02 02:45:43;;;;;;;;;;;;;;;;;;2206527;59;1703;-25
2023/11/02 02:48:14;;;;;;;;;;;;;;;;;;2206815;59;1340;-25
2023/11/02 02:50:50;;;;;;;;;;;;;;;;;;2206558;59;1931;-25
2023/11/02 02:53:22;;;;;;;;;;;;;;;;;;2205637;59;1599;-25
2023/11/02 02:55:55;;;;;;;;;;;;;;;;;;2206712;59;1371;-25
2023/11/02 02:58:26;;;;;;;;;;;;;;;;;;2206054;66;1935;-25
2023/11/02 03:00:57;;;;;;;;;;;;;;;;;;2207251;59;1639;-25
2023/11/02 03:03:29;;;;;;;;;;;;;;;;;;2206567;59;2346;-25
2023/11/02 03:05:59;;;;;;;;;;;;;;;;;;2206280;66;1284;-25
2023/11/02 03:08:29;;;;;;;;;;;;;;;;;;2206601;66;1291;-25
2023/11/02 03:11:00;;;;;;;;;;;;;;;;;;2206886;60;1176;-25
2023/11/02 03:13:31;;;;;;;;;;;;;;;;;;2206295;66;1740;-25
2023/11/02 03:16:05;;;;;;;;;;;;;;;;;;2207460;66;1282;-25
2023/11/02 03:18:36;;;;;;;;;;;;;;;;;;2205841;59;1987;-25
2023/11/02 03:21:07;;;;;;;;;;;;;;;;;;2207826;66;1475;-25
2023/11/02 03:23:48;;;;;;;;;;;;;;;;;;2206140;66;1515;-25
2023/11/02 03:26:37;;;;;;;;;;;;;;;;;;2207240;66;1714;-25
2023/11/02 03:29:07;;;;;;;;;;;;;;;;;;2210315;58;2200;-25
2023/11/02 03:31:53;;;;;;;;;;;;;;;;;;2207527;59;1535;-25
2023/11/02 03:34:29;;;;;;;;;;;;;;;;;;2207602;66;1293;-25
2023/11/02 03:37:08;;;;;;;;;;;;;;;;;;2206364;66;1193;-25
2023/11/02 03:39:54;;;;;;;;;;;;;;;;;;2205152;59;2293;-25
2023/11/02 03:42:25;;;;;;;;;;;;;;;;;;2205402;59;1695;-25
2023/11/02 03:45:01;;;;;;;;;;;;;;;;;;2206099;59;1272;-25
2023/11/02 03:47:40;;;;;;;;;;;;;;;;;;2205612;59;1286;-25
2023/11/02 03:50:18;;;;;;;;;;;;;;;;;;2206926;59;1176;-25
2023/11/02 03:53:03;;;;;;;;;;;;;;;;;;2206144;59;1465;-25
2023/11/02 03:55:44;;;;;;;;;;;;;;;;;;2202392;59;2352;-25
2023/11/02 03:58:28;;;;;;;;;;;;;;;;;;2206667;66;1387;-25
2023/11/02 04:01:11;;;;;;;;;;;;;;;;;;2207737;66;1668;-25
2023/11/02 04:03:44;;;;;;;;;;;;;;;;;;2206421;59;2404;-25
2023/11/02 04:06:18;;;;;;;;;;;;;;;;;;2207333;66;1390;-26
2023/11/02 04:08:49;;;;;;;;;;;;;;;;;;2207032;66;1567;-25
2023/11/02 04:11:22;;;;;;;;;;;;;;;;;;2208803;66;1443;-25
2023/11/02 04:14:11;;;;;;;;;;;;;;;;;;2208323;66;1420;-25
2023/11/02 04:16:42;;;;;;;;;;;;;;;;;;2207324;66;1588;-23
2023/11/02 04:19:12;;;;;;;;;;;;;;;;;;2207179;66;2068;-25
2023/11/02 04:21:43;;;;;;;;;;;;;;;;;;2203068;66;1668;-25
2023/11/02 04:24:13;;;;;;;;;;;;;;;;;;2207794;66;1369;-25
2023/11/02 04:26:43;;;;;;;;;;;;;;;;;;2203534;66;1962;-25
2023/11/02 04:29:14;;;;;;;;;;;;;;;;;;2204633;59;2228;-26
2023/11/02 04:31:44;;;;;;;;;;;;;;;;;;2206364;59;2212;-26
2023/11/02 04:34:14;;;;;;;;;;;;;;;;;;2207287;66;1199;-25
2023/11/02 04:36:44;;;;;;;;;;;;;;;;;;2205712;66;1547;-26
2023/11/02 04:39:14;;;;;;;;;;;;;;;;;;2206269;59;2075;-26
2023/11/02 04:41:45;;;;;;;;;;;;;;;;;;2206220;59;1817;-26
2023/11/02 04:44:15;;;;;;;;;;;;;;;;;;2207189;59;1607;-25
2023/11/02 04:46:45;;;;;;;;;;;;;;;;;;2206657;66;1730;-25
2023/11/02 04:49:15;;;;;;;;;;;;;;;;;;2207991;59;1497;-25
2023/11/02 04:51:57;;;;;;;;;;;;;;;;;;2206843;59;1917;-26
2023/11/02 04:54:27;;;;;;;;;;;;;;;;;;2206248;59;1547;-25
2023/11/02 04:56:59;;;;;;;;;;;;;;;;;;2207165;66;1479;-25
2023/11/02 04:59:36;;;;;;;;;;;;;;;;;;2205325;66;1958;-25
2023/11/02 05:02:06;;;;;;;;;;;;;;;;;;2203827;59;2245;-25
2023/11/02 05:04:36;;;;;;;;;;;;;;;;;;2206410;66;1361;-25
2023/11/02 05:07:07;;;;;;;;;;;;;;;;;;2207260;66;1146;-25
2023/11/02 05:09:37;;;;;;;;;;;;;;;;;;2205621;66;1158;-26
2023/11/02 05:12:07;;;;;;;;;;;;;;;;;;2206643;66;1297;-25
2023/11/02 05:14:38;;;;;;;;;;;;;;;;;;2206274;59;1704;-25
2023/11/02 05:17:08;;;;;;;;;;;;;;;;;;2207048;66;1719;-25
2023/11/02 05:19:38;;;;;;;;;;;;;;;;;;2206110;66;1956;-25
2023/11/02 05:22:08;;;;;;;;;;;;;;;;;;2206697;66;1252;-26
2023/11/02 05:24:38;;;;;;;;;;;;;;;;;;2205260;66;1345;-25
2023/11/02 05:27:09;;;;;;;;;;;;;;;;;;2207382;66;1331;-25
2023/11/02 05:29:39;;;;;;;;;;;;;;;;;;2205511;59;2950;-25
2023/11/02 05:32:09;;;;;;;;;;;;;;;;;;2207786;59;1175;-25
2023/11/02 05:34:40;;;;;;;;;;;;;;;;;;2205784;66;1388;-25
2023/11/02 05:37:10;;;;;;;;;;;;;;;;;;2207264;66;1396;-26
2023/11/02 05:39:40;;;;;;;;;;;;;;;;;;2206081;59;1941;-25
2023/11/02 05:42:10;;;;;;;;;;;;;;;;;;2207926;59;1611;-25
2023/11/02 05:44:40;;;;;;;;;;;;;;;;;;2205586;59;2191;-25
2023/11/02 05:47:11;;;;;;;;;;;;;;;;;;2208012;66;1206;-25
2023/11/02 05:49:41;;;;;;;;;;;;;;;;;;2205640;59;1286;-25
2023/11/02 05:52:12;;;;;;;;;;;;;;;;;;2207725;59;2029;-25
2023/11/02 05:54:42;;;;;;;;;;;;;;;;;;2206295;59;2733;-25
2023/11/02 05:57:14;;;;;;;;;;;;;;;;;;2207511;59;1459;-25
2023/11/02 05:59:44;;;;;;;;;;;;;;;;;;2205589;66;1937;-26
2023/11/02 06:02:15;;;;;;;;;;;;;;;;;;2206730;59;2256;-25
2023/11/02 06:04:45;;;;;;;;;;;;;;;;;;2205904;66;1808;-25
2023/11/02 06:07:15;;;;;;;;;;;;;;;;;;2207842;66;2137;-25
2023/11/02 06:09:45;;;;;;;;;;;;;;;;;;2205345;66;1372;-25
2023/11/02 06:12:16;;;;;;;;;;;;;;;;;;2207240;59;1387;-25
2023/11/02 06:14:46;;;;;;;;;;;;;;;;;;2202459;67;1298;-25
2023/11/02 06:17:16;;;;;;;;;;;;;;;;;;2207977;66;1194;-25
2023/11/02 06:19:46;;;;;;;;;;;;;;;;;;2206813;66;2175;-25
2023/11/02 06:22:17;;;;;;;;;;;;;;;;;;2206313;59;2119;-25
2023/11/02 06:24:47;;;;;;;;;;;;;;;;;;2204392;59;1723;-26
2023/11/02 06:27:18;;;;;;;;;;;;;;;;;;2207341;59;1632;-25
2023/11/02 06:29:48;;;;;;;;;;;;;;;;;;2205281;59;2306;-26
2023/11/02 06:32:18;;;;;;;;;;;;;;;;;;2206477;59;2066;-25
2023/11/02 06:34:48;;;;;;;;;;;;;;;;;;2205380;59;1229;-25
2023/11/02 06:37:20;;;;;;;;;;;;;;;;;;2206489;66;1070;-25
2023/11/02 06:39:50;;;;;;;;;;;;;;;;;;2205417;59;1936;-25
2023/11/02 06:42:20;;;;;;;;;;;;;;;;;;2207052;59;1327;-25
2023/11/02 06:44:51;;;;;;;;;;;;;;;;;;2206035;59;1346;-25
2023/11/02 06:47:21;;;;;;;;;;;;;;;;;;2207083;66;1169;-23
2023/11/02 06:49:53;;;;;;;;;;;;;;;;;;2206302;66;1278;-23
2023/11/02 06:52:23;;;;;;;;;;;;;;;;;;2207043;59;1279;-25
2023/11/02 06:54:53;;;;;;;;;;;;;;;;;;2206672;66;1667;-25
2023/11/02 06:57:23;;;;;;;;;;;;;;;;;;2207560;59;1508;-23
2023/11/02 06:59:54;;;;;;;;;;;;;;;;;;2208214;66;1931;-23
2023/11/02 07:02:24;;;;;;;;;;;;;;;;;;2209268;59;2395;-23
2023/11/02 07:04:57;;;;;;;;;;;;;;;;;;2206283;66;1738;-25
2023/11/02 07:07:28;;;;;;;;;;;;;;;;;;2206955;66;1180;-25
2023/11/02 07:09:58;;;;;;;;;;;;;;;;;;2205784;66;1653;-26
2023/11/02 07:12:28;;;;;;;;;;;;;;;;;;2206110;59;2053;-26
2023/11/02 07:14:58;;;;;;;;;;;;;;;;;;2205096;66;1581;-25
2023/11/02 07:17:29;;;;;;;;;;;;;;;;;;2206316;66;1662;-25
2023/11/02 07:19:59;;;;;;;;;;;;;;;;;;2205550;66;1939;-25
2023/11/02 07:22:29;;;;;;;;;;;;;;;;;;2206388;66;1229;-26
2023/11/02 07:25:01;;;;;;;;;;;;;;;;;;2204327;59;2182;-26
2023/11/02 07:27:31;;;;;;;;;;;;;;;;;;2205465;59;2098;-25
2023/11/02 07:30:03;;;;;;;;;;;;;;;;;;2203009;59;2202;-26
2023/11/02 07:32:33;;;;;;;;;;;;;;;;;;2205393;59;2077;-25
2023/11/02 07:35:03;;;;;;;;;;;;;;;;;;2204824;59;2167;-25
2023/11/02 07:37:33;;;;;;;;;;;;;;;;;;2204455;66;1651;-26
2023/11/02 07:40:04;;;;;;;;;;;;;;;;;;2205615;59;1941;-26
2023/11/02 07:42:34;;;;;;;;;;;;;;;;;;2205171;67;1749;-26
2023/11/02 07:45:05;;;;;;;;;;;;;;;;;;2205881;66;1760;-26
2023/11/02 07:47:35;;;;;;;;;;;;;;;;;;2205827;59;1663;-26
2023/11/02 07:50:06;;;;;;;;;;;;;;;;;;2207040;66;1512;-25
2023/11/02 07:52:39;;;;;;;;;;;;;;;;;;2205206;59;1392;-26
2023/11/02 07:55:12;;;;;;;;;;;;;;;;;;2207007;59;1990;-26
2023/11/02 07:57:42;;;;;;;;;;;;;;;;;;2205375;66;1534;-24
2023/11/02 08:00:15;;;;;;;;;;;;;;;;;;2206279;66;1995;-25
2023/11/02 08:02:45;;;;;;;;;;;;;;;;;;2204872;59;2354;-23
2023/11/02 08:05:15;;;;;;;;;;;;;;;;;;2206173;66;1670;-26
2023/11/02 08:07:45;;;;;;;;;;;;;;;;;;2205504;67;1529;-26
2023/11/02 08:10:16;;;;;;;;;;;;;;;;;;2207083;66;2947;-24
2023/11/02 08:12:46;;;;;;;;;;;;;;;;;;2205560;66;1695;-24
2023/11/02 08:15:16;;;;;;;;;;;;;;;;;;2206207;67;1721;-23
2023/11/02 08:17:46;;;;;;;;;;;;;;;;;;2205552;66;1217;-25
2023/11/02 08:20:18;;;;;;;;;;;;;;;;;;2207305;59;2188;-26
2023/11/02 08:22:49;;;;;;;;;;;;;;;;;;2205173;59;1398;-25
2023/11/02 08:25:19;;;;;;;;;;;;;;;;;;2206361;59;1655;-25
2023/11/02 08:27:56;;;;;;;;;;;;;;;;;;2204820;59;2265;-24
2023/11/02 08:30:27;;;;;;;;;;;;;;;;;;2205219;59;2279;-24
2023/11/02 08:32:58;;;;;;;;;;;;;;;;;;2202727;59;3338;-24
2023/11/02 08:35:30;;;;;;;;;;;;;;;;;;2204359;67;1624;-26
2023/11/02 08:38:01;;;;;;;;;;;;;;;;;;2201154;67;1481;-24
2023/11/02 08:40:31;;;;;;;;;;;;;;;;;;2207271;59;1945;-24
2023/11/02 08:43:03;;;;;;;;;;;;;;;;;;2205510;66;1605;-24
2023/11/02 08:45:33;;;;;;;;;;;;;;;;;;2207032;59;1549;-24
2023/11/02 08:48:03;;;;;;;;;;;;;;;;;;2206702;66;2992;-23
2023/11/02 08:50:35;;;;;;;;;;;;;;;;;;2208318;66;1329;-24
2023/11/02 08:53:06;;;;;;;;;;;;;;;;;;2207685;59;1634;-24
2023/11/02 08:55:36;;;;;;;;;;;;;;;;;;2211885;59;1346;-24
2023/11/02 08:58:07;;;;;;;;;;;;;;;;;;2207402;59;1757;-24
2023/11/02 09:00:38;;;;;;;;;;;;;;;;;;2206925;66;2005;-24
2023/11/02 09:03:08;;;;;;;;;;;;;;;;;;2206559;59;2324;-24
2023/11/02 09:05:39;;;;;;;;;;;;;;;;;;2207946;66;1185;-24
2023/11/02 09:08:09;;;;;;;;;;;;;;;;;;2206516;66;1446;-24
2023/11/02 09:10:39;;;;;;;;;;;;;;;;;;2206944;66;1296;-24
2023/11/02 09:13:10;;;;;;;;;;;;;;;;;;2206030;66;1708;-24
2023/11/02 09:15:40;;;;;;;;;;;;;;;;;;2207025;66;1195;-24
2023/11/02 09:18:10;;;;;;;;;;;;;;;;;;2205861;66;1299;-24
2023/11/02 09:20:40;;;;;;;;;;;;;;;;;;2206715;66;1937;-23
2023/11/02 09:23:11;;;;;;;;;;;;;;;;;;2204165;67;1948;-24
2023/11/02 09:25:41;;;;;;;;;;;;;;;;;;2206338;59;1668;-23
2023/11/02 09:28:15;;;;;;;;;;;;;;;;;;2207735;59;2310;-25
2023/11/02 09:30:46;;;;;;;;;;;;;;;;;;2207127;59;2282;-25
2023/11/02 09:33:16;;;;;;;;;;;;;;;;;;2209376;59;1657;-26
2023/11/02 09:35:46;;;;;;;;;;;;;;;;;;2206881;66;1960;-25
2023/11/02 09:38:19;;;;;;;;;;;;;;;;;;2207963;66;1314;-26
2023/11/02 09:40:49;;;;;;;;;;;;;;;;;;2206112;59;1994;-26
2023/11/02 09:43:20;;;;;;;;;;;;;;;;;;2207428;59;1404;-25
2023/11/02 09:45:50;;;;;;;;;;;;;;;;;;2205736;66;1635;-26
2023/11/02 09:48:20;;;;;;;;;;;;;;;;;;2207446;66;1441;-25
2023/11/02 09:50:51;;;;;;;;;;;;;;;;;;2205362;59;1590;-26
2023/11/02 09:53:21;;;;;;;;;;;;;;;;;;2207879;59;1575;-26
2023/11/02 09:55:51;;;;;;;;;;;;;;;;;;2205045;59;1225;-24
2023/11/02 09:58:22;;;;;;;;;;;;;;;;;;2206893;59;1161;-24
2023/11/02 10:00:53;;;;;;;;;;;;;;;;;;2202965;66;1958;-25
2023/11/02 10:03:24;;;;;;;;;;;;;;;;;;2205734;59;2321;-24
2023/11/02 10:05:55;;;;;;;;;;;;;;;;;;2205833;66;1369;-24
2023/11/02 10:08:25;;;;;;;;;;;;;;;;;;2207227;66;1898;-26
2023/11/02 10:11:15;;;;;;;;;;;;;;;;;;2206233;66;1470;-25
2023/11/02 10:13:48;;;;;;;;;;;;;;;;;;2206327;66;2055;-25
2023/11/02 10:16:25;;;;;;;;;;;;;;;;;;2206703;59;1815;-26
2023/11/02 10:18:56;;;;;;;;;;;;;;;;;;2206899;66;2129;-26
2023/11/02 10:21:26;;;;;;;;;;;;;;;;;;2207456;66;1827;-25
2023/11/02 10:23:58;;;;;;;;;;;;;;;;;;2205355;66;1843;-25
2023/11/02 10:26:29;;;;;;;;;;;;;;;;;;2207433;66;1902;-23
2023/11/02 10:29:01;;;;;;;;;;;;;;;;;;2206022;59;2191;-24
2023/11/02 10:31:33;;;;;;;;;;;;;;;;;;2206117;66;1947;-24
2023/11/02 10:34:05;;;;;;;;;;;;;;;;;;2205222;66;1686;-26
2023/11/02 10:36:37;;;;;;;;;;;;;;;;;;2207224;66;1313;-24
2023/11/02 10:39:08;;;;;;;;;;;;;;;;;;2206541;59;1999;-25
2023/11/02 10:41:39;;;;;;;;;;;;;;;;;;2206899;59;1610;-26
2023/11/02 10:44:09;;;;;;;;;;;;;;;;;;2205693;59;1630;-25
2023/11/02 10:46:40;;;;;;;;;;;;;;;;;;2205943;66;1739;-26
2023/11/02 10:49:11;;;;;;;;;;;;;;;;;;2203314;67;1832;-25
2023/11/02 10:51:43;;;;;;;;;;;;;;;;;;2207145;66;1641;-25
2023/11/02 10:54:19;;;;;;;;;;;;;;;;;;2206092;59;1591;-24
2023/11/02 10:56:57;;;;;;;;;;;;;;;;;;2205606;66;1642;-24
2023/11/02 10:59:28;;;;;;;;;;;;;;;;;;2206626;66;1951;-24
2023/11/02 11:01:59;;;;;;;;;;;;;;;;;;2202169;66;2196;-26
2023/11/02 11:04:32;;;;;;;;;;;;;;;;;;2205818;66;1594;-25
2023/11/02 11:07:03;;;;;;;;;;;;;;;;;;2205981;66;1341;-24
2023/11/02 11:09:35;;;;;;;;;;;;;;;;;;2206414;66;1246;-26
2023/11/02 11:12:06;;;;;;;;;;;;;;;;;;2205718;66;2060;-25
2023/11/02 11:14:37;;;;;;;;;;;;;;;;;;2206532;66;1436;-25
2023/11/02 11:17:09;;;;;;;;;;;;;;;;;;2206107;66;1174;-25
2023/11/02 11:19:39;;;;;;;;;;;;;;;;;;2206576;66;2012;-25
2023/11/02 11:22:11;;;;;;;;;;;;;;;;;;2202131;66;1603;-27
2023/11/02 11:24:44;;;;;;;;;;;;;;;;;;2207599;66;1633;-28
2023/11/02 11:27:27;;;;;;;;;;;;;;;;;;2205109;67;2142;-28
2023/11/02 11:29:57;;;;;;;;;;;;;;;;;;2205659;59;2362;-28
2023/11/02 11:32:35;;;;;;;;;;;;;;;;;;2206357;66;1703;-28
2023/11/02 11:35:06;;;;;;;;;;;;;;;;;;2204447;66;1285;-28
2023/11/02 11:37:51;;;;;;;;;;;;;;;;;;2206993;66;1363;-28
2023/11/02 11:40:21;;;;;;;;;;;;;;;;;;2206644;59;1993;-28
2023/11/02 11:42:51;;;;;;;;;;;;;;;;;;2205231;66;1181;-28
2023/11/02 11:45:24;;;;;;;;;;;;;;;;;;2206495;59;1771;-28
2023/11/02 11:47:55;;;;;;;;;;;;;;;;;;2205570;66;1478;-29
2023/11/02 11:50:35;;;;;;;;;;;;;;;;;;2207045;66;1280;-28
2023/11/02 11:53:12;;;;;;;;;;;;;;;;;;2209969;53;3743;-26
2023/11/02 11:55:43;;;;;;;;;;;;;;;;;;2203020;59;3664;-26
2023/11/02 11:58:14;;;;;;;;;;;;;;;;;;2202159;59;3796;-27
2023/11/02 12:00:53;;;;;;;;;;;;;;;;;;2203171;67;4067;-26
2023/11/02 12:03:35;;;;;;;;;;;;;;;;;;2202115;59;2584;-26
2023/11/02 12:06:07;;;;;;;;;;;;;;;;;;2197345;67;3637;-27
2023/11/02 12:08:44;;;;;;;;;;;;;;;;;;2198766;61;2492;-26
2023/11/02 12:11:25;;;;;;;;;;;;;;;;;;2195128;67;2397;-26
2023/11/02 12:13:57;;;;;;;;;;;;;;;;;;2198239;67;3004;-26
2023/11/02 12:16:31;;;;;;;;;;;;;;;;;;2198653;59;2698;-27
2023/11/02 12:19:03;;;;;;;;;;;;;;;;;;2195258;59;4198;-26
2023/11/02 12:21:33;;;;;;;;;;;;;;;;;;2195903;67;3720;-27
2023/11/02 12:24:10;;;;;;;;;;;;;;;;;;2194622;59;2597;-27
2023/11/02 12:26:40;;;;;;;;;;;;;;;;;;2198436;59;2887;-26
2023/11/02 12:29:11;;;;;;;;;;;;;;;;;;2194215;59;4038;-27
2023/11/02 12:31:44;;;;;;;;;;;;;;;;;;2198295;59;3440;-27
2023/11/02 12:34:14;;;;;;;;;;;;;;;;;;2198215;67;3795;-26
2023/11/02 12:36:45;;;;;;;;;;;;;;;;;;2200155;59;2827;-26
2023/11/02 12:39:17;;;;;;;;;;;;;;;;;;2197804;59;3961;-27
2023/11/02 12:41:47;;;;;;;;;;;;;;;;;;2200081;59;2658;-26
2023/11/02 12:44:21;;;;;;;;;;;;;;;;;;2195721;59;3737;-27
2023/11/02 12:47:03;;;;;;;;;;;;;;;;;;2199299;67;2857;-27
2023/11/02 12:49:33;;;;;;;;;;;;;;;;;;2199963;67;2695;-26
2023/11/02 12:52:05;;;;;;;;;;;;;;;;;;2198965;67;2837;-27
2023/11/02 12:54:37;;;;;;;;;;;;;;;;;;2196850;59;2295;-26
2023/11/02 12:57:09;;;;;;;;;;;;;;;;;;2198653;67;3531;-26
2023/11/02 12:59:41;;;;;;;;;;;;;;;;;;2199778;67;3327;-26
2023/11/02 13:02:22;;;;;;;;;;;;;;;;;;2198655;59;2891;-26
2023/11/02 13:04:53;;;;;;;;;;;;;;;;;;2199206;67;3021;-26
2023/11/02 13:07:28;;;;;;;;;;;;;;;;;;2198858;67;3808;-27
2023/11/02 13:10:01;;;;;;;;;;;;;;;;;;2196528;67;4055;-26
2023/11/02 13:12:34;;;;;;;;;;;;;;;;;;2198839;67;2759;-26
2023/11/02 13:15:08;;;;;;;;;;;;;;;;;;2198027;59;4018;-26
2023/11/02 13:17:44;;;;;;;;;;;;;;;;;;2198863;67;2702;-26
2023/11/02 13:20:15;;;;;;;;;;;;;;;;;;2195325;67;3833;-26
2023/11/02 13:22:50;;;;;;;;;;;;;;;;;;2199555;67;2843;-26
2023/11/02 13:25:21;;;;;;;;;;;;;;;;;;2198679;67;2550;-26
2023/11/02 13:27:51;;;;;;;;;;;;;;;;;;2199719;59;2694;-27
2023/11/02 13:30:22;;;;;;;;;;;;;;;;;;2198370;59;2876;-27
2023/11/02 13:32:54;;;;;;;;;;;;;;;;;;2199577;59;3099;-26
2023/11/02 13:35:24;;;;;;;;;;;;;;;;;;2198864;59;3847;-27
2023/11/02 13:37:54;;;;;;;;;;;;;;;;;;2199489;67;2947;-27
2023/11/02 13:40:26;;;;;;;;;;;;;;;;;;2195538;59;3478;-27
2023/11/02 13:42:57;;;;;;;;;;;;;;;;;;2198466;67;2893;-26
2023/11/02 13:45:27;;;;;;;;;;;;;;;;;;2198325;67;2605;-27
2023/11/02 13:47:58;;;;;;;;;;;;;;;;;;2199310;59;4287;-27
2023/11/02 13:50:28;;;;;;;;;;;;;;;;;;2200828;67;3733;-25
2023/11/02 13:52:58;;;;;;;;;;;;;;;;;;2199681;67;4720;-25
2023/11/02 13:55:30;;;;;;;;;;;;;;;;;;2200070;67;3742;-25
2023/11/02 13:58:01;;;;;;;;;;;;;;;;;;2200621;67;3423;-25
2023/11/02 14:00:31;;;;;;;;;;;;;;;;;;2200636;67;2812;-25
2023/11/02 14:03:02;;;;;;;;;;;;;;;;;;2199747;59;3297;-26
2023/11/02 14:05:32;;;;;;;;;;;;;;;;;;2199421;59;2451;-25
2023/11/02 14:08:02;;;;;;;;;;;;;;;;;;2198862;67;3483;-26
2023/11/02 14:10:33;;;;;;;;;;;;;;;;;;2199608;67;3367;-25
2023/11/02 14:13:03;;;;;;;;;;;;;;;;;;2198580;67;2589;-25
2023/11/02 14:15:33;;;;;;;;;;;;;;;;;;2199001;67;3589;-25
2023/11/02 14:18:05;;;;;;;;;;;;;;;;;;2196336;67;2977;-25
2023/11/02 14:20:35;;;;;;;;;;;;;;;;;;2198717;67;2739;-25
2023/11/02 14:23:05;;;;;;;;;;;;;;;;;;2195606;67;4592;-25
2023/11/02 14:25:36;;;;;;;;;;;;;;;;;;2199367;67;2793;-25
2023/11/02 14:28:06;;;;;;;;;;;;;;;;;;2198818;59;2630;-26
2023/11/02 14:30:36;;;;;;;;;;;;;;;;;;2197248;59;2286;-26
2023/11/02 14:33:06;;;;;;;;;;;;;;;;;;2198645;59;2907;-26
2023/11/02 14:35:37;;;;;;;;;;;;;;;;;;2199174;67;3645;-25
2023/11/02 14:38:07;;;;;;;;;;;;;;;;;;2197992;59;3716;-26
2023/11/02 14:40:37;;;;;;;;;;;;;;;;;;2199665;59;1936;-26
2023/11/02 14:43:08;;;;;;;;;;;;;;;;;;2195569;67;3893;-26
2023/11/02 14:45:38;;;;;;;;;;;;;;;;;;2199137;59;4150;-26
2023/11/02 14:48:09;;;;;;;;;;;;;;;;;;2198305;67;2627;-26
2023/11/02 14:50:39;;;;;;;;;;;;;;;;;;2199004;67;2246;-25
2023/11/02 14:53:10;;;;;;;;;;;;;;;;;;2198174;59;4057;-26
2023/11/02 14:55:40;;;;;;;;;;;;;;;;;;2199267;67;2930;-26
2023/11/02 14:58:11;;;;;;;;;;;;;;;;;;2195724;59;2778;-26
2023/11/02 15:00:41;;;;;;;;;;;;;;;;;;2198310;67;1932;-26
2023/11/02 15:03:11;;;;;;;;;;;;;;;;;;2198113;67;2504;-25
2023/11/02 15:05:41;;;;;;;;;;;;;;;;;;2199032;67;4174;-26
2023/11/02 15:08:12;;;;;;;;;;;;;;;;;;2197663;67;2883;-26
2023/11/02 15:10:43;;;;;;;;;;;;;;;;;;2196849;67;2725;-26
2023/11/02 15:13:13;;;;;;;;;;;;;;;;;;2196790;67;3607;-26
2023/11/02 15:15:43;;;;;;;;;;;;;;;;;;2198582;61;3096;-26
2023/11/02 15:18:14;;;;;;;;;;;;;;;;;;2198715;67;2915;-25
2023/11/02 15:20:46;;;;;;;;;;;;;;;;;;2195574;67;5496;-26
2023/11/02 15:23:17;;;;;;;;;;;;;;;;;;2195452;67;2844;-25
2023/11/02 15:25:50;;;;;;;;;;;;;;;;;;2198574;59;3031;-26
2023/11/02 15:28:20;;;;;;;;;;;;;;;;;;2197898;59;2589;-26
2023/11/02 15:30:50;;;;;;;;;;;;;;;;;;2198173;59;3863;-25
2023/11/02 15:33:20;;;;;;;;;;;;;;;;;;2194866;59;2731;-25
2023/11/02 15:35:51;;;;;;;;;;;;;;;;;;2198865;59;3715;-25
2023/11/02 15:38:21;;;;;;;;;;;;;;;;;;2198296;59;2714;-25
2023/11/02 15:40:51;;;;;;;;;;;;;;;;;;2199257;59;2880;-25
2023/11/02 15:43:21;;;;;;;;;;;;;;;;;;2197155;59;2571;-25
2023/11/02 15:45:53;;;;;;;;;;;;;;;;;;2199740;67;2637;-25
2023/11/02 15:48:23;;;;;;;;;;;;;;;;;;2197824;59;3671;-25
2023/11/02 15:50:53;;;;;;;;;;;;;;;;;;2199150;67;4030;-25
2023/11/02 15:53:23;;;;;;;;;;;;;;;;;;2197594;59;2854;-26
2023/11/02 15:55:53;;;;;;;;;;;;;;;;;;2199194;59;2555;-25
2023/11/02 15:58:24;;;;;;;;;;;;;;;;;;2197632;59;2886;-25
2023/11/02 16:00:54;;;;;;;;;;;;;;;;;;2198777;59;3685;-25
2023/11/02 16:03:24;;;;;;;;;;;;;;;;;;2195307;59;3889;-25
2023/11/02 16:05:55;;;;;;;;;;;;;;;;;;2198224;59;2784;-25
2023/11/02 16:08:25;;;;;;;;;;;;;;;;;;2197143;60;2972;-25
2023/11/02 16:10:55;;;;;;;;;;;;;;;;;;2197464;67;4083;-25
2023/11/02 16:13:26;;;;;;;;;;;;;;;;;;2196410;62;2706;-24
2023/11/02 16:15:56;;;;;;;;;;;;;;;;;;2198268;59;3772;-25
2023/11/02 16:18:27;;;;;;;;;;;;;;;;;;2197918;59;4106;-24
2023/11/02 16:20:57;;;;;;;;;;;;;;;;;;2199176;59;2948;-25
2023/11/02 16:23:28;;;;;;;;;;;;;;;;;;2197961;67;3396;-24
2023/11/02 16:26:01;;;;;;;;;;;;;;;;;;2198435;67;2508;-24
2023/11/02 16:28:32;;;;;;;;;;;;;;;;;;2194424;59;2719;-25
2023/11/02 16:31:02;;;;;;;;;;;;;;;;;;2196080;59;2754;-24
2023/11/02 16:33:32;;;;;;;;;;;;;;;;;;2195871;59;2712;-24
2023/11/02 16:36:03;;;;;;;;;;;;;;;;;;2197889;59;2592;-24
2023/11/02 16:38:34;;;;;;;;;;;;;;;;;;2197520;59;2941;-24
2023/11/02 16:41:04;;;;;;;;;;;;;;;;;;2198461;59;3812;-24
2023/11/02 16:43:35;;;;;;;;;;;;;;;;;;2196761;59;3541;-24
2023/11/02 16:46:10;;;;;;;;;;;;;;;;;;2197278;59;3798;-24
2023/11/02 16:48:40;;;;;;;;;;;;;;;;;;2197079;59;3160;-24
2023/11/02 16:51:10;;;;;;;;;;;;;;;;;;2195459;67;2958;-24
2023/11/02 16:53:41;;;;;;;;;;;;;;;;;;2196863;59;3134;-24
2023/11/02 16:56:12;;;;;;;;;;;;;;;;;;2198325;67;3685;-24
2023/11/02 16:58:42;;;;;;;;;;;;;;;;;;2198155;67;2236;-24
2023/11/02 17:01:12;;;;;;;;;;;;;;;;;;2194481;59;3012;-24
2023/11/02 17:03:43;;;;;;;;;;;;;;;;;;2198038;59;2762;-24
2023/11/02 17:06:13;;;;;;;;;;;;;;;;;;2196133;59;3550;-24
2023/11/02 17:08:43;;;;;;;;;;;;;;;;;;2199572;59;3100;-24
2023/11/02 17:11:15;;;;;;;;;;;;;;;;;;2197389;59;2355;-24
2023/11/02 17:13:46;;;;;;;;;;;;;;;;;;2197689;60;2416;-24
2023/11/02 17:16:16;;;;;;;;;;;;;;;;;;2194584;59;2573;-24
2023/11/02 17:18:46;;;;;;;;;;;;;;;;;;2197809;59;3744;-24
2023/11/02 17:21:16;;;;;;;;;;;;;;;;;;2196050;59;2619;-24
2023/11/02 17:23:47;;;;;;;;;;;;;;;;;;2194213;59;2749;-24
2023/11/02 17:26:17;;;;;;;;;;;;;;;;;;2197403;59;3079;-24
2023/11/02 17:28:47;;;;;;;;;;;;;;;;;;2192941;59;3842;-23
2023/11/02 17:31:18;;;;;;;;;;;;;;;;;;2195179;60;3733;-24
2023/11/02 17:33:48;;;;;;;;;;;;;;;;;;2198708;59;3504;-24
2023/11/02 17:36:18;;;;;;;;;;;;;;;;;;2195266;59;2642;-23
2023/11/02 17:38:49;;;;;;;;;;;;;;;;;;2200259;59;2652;-24